sensor_id;sensor_type;location;lat;lon;timestamp;temperature;humidity
44277;DHT22;29973;43.742;1.236;2023-12-07T00:00:25;-1.20;99.90
44277;DHT22;29973;43.742;1.236;2023-12-07T00:03:30;-1.10;99.90
44277;DHT22;29973;43.742;1.236;2023-12-07T00:06:42;-1.10;99.90
44277;DHT22;29973;43.742;1.236;2023-12-07T00:09:31;-1.10;99.90
44277;DHT22;29973;43.742;1.236;2023-12-07T00:12:04;-1.10;99.90
44277;DHT22;29973;43.742;1.236;2023-12-07T00:15:20;-1.10;99.90
44277;DHT22;29973;43.742;1.236;2023-12-07T00:18:18;-1.30;99.90
44277;DHT22;29973;43.742;1.236;2023-12-07T00:20:55;-1.30;99.90
44277;DHT22;29973;43.742;1.236;2023-12-07T00:23:48;-1.30;99.90
44277;DHT22;29973;43.742;1.236;2023-12-07T00:27:11;-1.50;99.90
44277;DHT22;29973;43.742;1.236;2023-12-07T00:30:03;-1.60;99.90
44277;DHT22;29973;43.742;1.236;2023-12-07T00:32:37;-1.50;99.90
44277;DHT22;29973;43.742;1.236;2023-12-07T00:35:19;-1.50;99.90
44277;DHT22;29973;43.742;1.236;2023-12-07T00:38:07;-1.40;99.90
44277;DHT22;29973;43.742;1.236;2023-12-07T00:40:38;-1.40;99.90
44277;DHT22;29973;43.742;1.236;2023-12-07T00:43:09;-1.70;99.90
44277;DHT22;29973;43.742;1.236;2023-12-07T00:46:00;-1.80;99.90
44277;DHT22;29973;43.742;1.236;2023-12-07T00:49:05;-1.80;99.90
44277;DHT22;29973;43.742;1.236;2023-12-07T00:51:36;-1.60;99.90
44277;DHT22;29973;43.742;1.236;2023-12-07T00:54:42;-1.40;99.90
44277;DHT22;29973;43.742;1.236;2023-12-07T00:57:21;-1.30;99.90
44277;DHT22;29973;43.742;1.236;2023-12-07T01:00:33;-1.40;99.90
44277;DHT22;29973;43.742;1.236;2023-12-07T01:03:25;-1.60;99.90
44277;DHT22;29973;43.742;1.236;2023-12-07T01:06:39;-1.60;99.90
44277;DHT22;29973;43.742;1.236;2023-12-07T01:09:33;-1.30;99.90
44277;DHT22;29973;43.742;1.236;2023-12-07T01:12:25;-1.10;99.90
44277;DHT22;29973;43.742;1.236;2023-12-07T01:15:23;-1.10;99.90
44277;DHT22;29973;43.742;1.236;2023-12-07T01:18:22;-1.10;99.90
44277;DHT22;29973;43.742;1.236;2023-12-07T01:21:08;-1.30;99.90
44277;DHT22;29973;43.742;1.236;2023-12-07T01:23:46;-1.10;99.90
44277;DHT22;29973;43.742;1.236;2023-12-07T01:26:24;-1.00;99.90
44277;DHT22;29973;43.742;1.236;2023-12-07T01:29:15;-1.20;99.90
44277;DHT22;29973;43.742;1.236;2023-12-07T01:31:51;-0.90;99.90
44277;DHT22;29973;43.742;1.236;2023-12-07T01:34:38;-0.80;99.90
44277;DHT22;29973;43.742;1.236;2023-12-07T01:37:31;-0.90;99.90
44277;DHT22;29973;43.742;1.236;2023-12-07T01:40:05;-1.00;99.90
44277;DHT22;29973;43.742;1.236;2023-12-07T01:43:06;-1.20;99.90
44277;DHT22;29973;43.742;1.236;2023-12-07T01:45:59;-1.10;99.90
44277;DHT22;29973;43.742;1.236;2023-12-07T01:48:34;-1.00;99.90
44277;DHT22;29973;43.742;1.236;2023-12-07T01:51:22;-1.00;99.90
44277;DHT22;29973;43.742;1.236;2023-12-07T01:54:18;-1.10;99.90
44277;DHT22;29973;43.742;1.236;2023-12-07T01:56:45;-1.30;99.90
44277;DHT22;29973;43.742;1.236;2023-12-07T01:59:39;-1.30;99.90
44277;DHT22;29973;43.742;1.236;2023-12-07T02:02:54;-1.30;99.90
44277;DHT22;29973;43.742;1.236;2023-12-07T02:05:32;-1.40;99.90
44277;DHT22;29973;43.742;1.236;2023-12-07T02:08:29;-1.40;99.90
44277;DHT22;29973;43.742;1.236;2023-12-07T02:11:16;-1.30;99.90
44277;DHT22;29973;43.742;1.236;2023-12-07T02:13:56;-1.40;99.90
44277;DHT22;29973;43.742;1.236;2023-12-07T02:16:43;-1.50;99.90
44277;DHT22;29973;43.742;1.236;2023-12-07T02:22:27;-1.20;99.90
44277;DHT22;29973;43.742;1.236;2023-12-07T02:25:09;-1.00;99.90
44277;DHT22;29973;43.742;1.236;2023-12-07T02:27:43;-1.20;99.90
44277;DHT22;29973;43.742;1.236;2023-12-07T02:30:41;-1.30;99.90
44277;DHT22;29973;43.742;1.236;2023-12-07T02:33:48;-1.00;99.90
44277;DHT22;29973;43.742;1.236;2023-12-07T02:36:19;-1.00;99.90
44277;DHT22;29973;43.742;1.236;2023-12-07T02:38:58;-1.00;99.90
44277;DHT22;29973;43.742;1.236;2023-12-07T02:41:34;-0.90;99.90
44277;DHT22;29973;43.742;1.236;2023-12-07T02:44:24;-1.00;99.90
44277;DHT22;29973;43.742;1.236;2023-12-07T02:46:54;-1.00;99.90
44277;DHT22;29973;43.742;1.236;2023-12-07T02:49:44;-1.00;99.90
44277;DHT22;29973;43.742;1.236;2023-12-07T02:52:34;-1.20;99.90
44277;DHT22;29973;43.742;1.236;2023-12-07T02:55:05;-1.20;99.90
44277;DHT22;29973;43.742;1.236;2023-12-07T02:57:36;-1.20;99.90
44277;DHT22;29973;43.742;1.236;2023-12-07T03:00:13;-1.20;99.90
44277;DHT22;29973;43.742;1.236;2023-12-07T03:02:41;-1.30;99.90
44277;DHT22;29973;43.742;1.236;2023-12-07T03:05:22;-1.30;99.90
44277;DHT22;29973;43.742;1.236;2023-12-07T03:07:52;-1.20;99.90
44277;DHT22;29973;43.742;1.236;2023-12-07T03:10:49;-1.20;99.90
44277;DHT22;29973;43.742;1.236;2023-12-07T03:13:31;-1.20;99.90
44277;DHT22;29973;43.742;1.236;2023-12-07T03:16:00;-1.20;99.90
44277;DHT22;29973;43.742;1.236;2023-12-07T03:18:43;-1.20;99.90
44277;DHT22;29973;43.742;1.236;2023-12-07T03:21:09;-1.10;99.90
44277;DHT22;29973;43.742;1.236;2023-12-07T03:23:40;-1.20;99.90
44277;DHT22;29973;43.742;1.236;2023-12-07T03:26:27;-1.40;99.90
44277;DHT22;29973;43.742;1.236;2023-12-07T03:29:02;-1.40;99.90
44277;DHT22;29973;43.742;1.236;2023-12-07T03:31:34;-1.20;99.90
44277;DHT22;29973;43.742;1.236;2023-12-07T03:34:15;-1.20;99.90
44277;DHT22;29973;43.742;1.236;2023-12-07T03:37:11;-1.10;99.90
44277;DHT22;29973;43.742;1.236;2023-12-07T03:40:01;-1.10;99.90
44277;DHT22;29973;43.742;1.236;2023-12-07T03:42:47;-1.20;99.90
44277;DHT22;29973;43.742;1.236;2023-12-07T03:45:15;-1.00;99.90
44277;DHT22;29973;43.742;1.236;2023-12-07T03:48:12;-1.00;99.90
44277;DHT22;29973;43.742;1.236;2023-12-07T03:51:01;-1.00;99.90
44277;DHT22;29973;43.742;1.236;2023-12-07T03:53:49;-1.00;99.90
44277;DHT22;29973;43.742;1.236;2023-12-07T03:56:27;-0.90;99.90
44277;DHT22;29973;43.742;1.236;2023-12-07T03:58:54;-0.80;99.90
44277;DHT22;29973;43.742;1.236;2023-12-07T04:01:36;-0.70;99.90
44277;DHT22;29973;43.742;1.236;2023-12-07T04:04:10;-0.90;99.90
44277;DHT22;29973;43.742;1.236;2023-12-07T04:07:07;-1.10;99.90
44277;DHT22;29973;43.742;1.236;2023-12-07T04:09:47;-1.20;99.90
44277;DHT22;29973;43.742;1.236;2023-12-07T04:12:42;-1.30;99.90
44277;DHT22;29973;43.742;1.236;2023-12-07T04:15:11;-1.20;99.90
44277;DHT22;29973;43.742;1.236;2023-12-07T04:18:03;-1.10;99.90
44277;DHT22;29973;43.742;1.236;2023-12-07T04:20:40;-1.10;99.90
44277;DHT22;29973;43.742;1.236;2023-12-07T04:23:09;-1.10;99.90
44277;DHT22;29973;43.742;1.236;2023-12-07T04:26:06;-1.20;99.90
44277;DHT22;29973;43.742;1.236;2023-12-07T04:28:40;-1.10;99.90
44277;DHT22;29973;43.742;1.236;2023-12-07T04:31:17;-1.20;99.90
44277;DHT22;29973;43.742;1.236;2023-12-07T04:34:23;-1.20;99.90
44277;DHT22;29973;43.742;1.236;2023-12-07T04:36:51;-1.10;99.90
44277;DHT22;29973;43.742;1.236;2023-12-07T04:39:29;-1.10;99.90
44277;DHT22;29973;43.742;1.236;2023-12-07T04:42:00;-1.00;99.90
44277;DHT22;29973;43.742;1.236;2023-12-07T04:44:30;-0.90;99.90
44277;DHT22;29973;43.742;1.236;2023-12-07T04:47:09;-0.90;99.90
44277;DHT22;29973;43.742;1.236;2023-12-07T04:49:40;-0.80;99.90
44277;DHT22;29973;43.742;1.236;2023-12-07T04:52:09;-0.80;99.90
44277;DHT22;29973;43.742;1.236;2023-12-07T04:54:41;-0.80;99.90
44277;DHT22;29973;43.742;1.236;2023-12-07T04:57:10;-0.90;99.90
44277;DHT22;29973;43.742;1.236;2023-12-07T04:59:43;-0.80;99.90
44277;DHT22;29973;43.742;1.236;2023-12-07T05:02:21;-0.60;99.90
44277;DHT22;29973;43.742;1.236;2023-12-07T05:05:14;-0.60;99.90
44277;DHT22;29973;43.742;1.236;2023-12-07T05:08:02;-0.60;99.90
44277;DHT22;29973;43.742;1.236;2023-12-07T05:10:59;-0.60;99.90
44277;DHT22;29973;43.742;1.236;2023-12-07T05:13:36;-0.70;99.90
44277;DHT22;29973;43.742;1.236;2023-12-07T05:16:10;-0.60;99.90
44277;DHT22;29973;43.742;1.236;2023-12-07T05:18:40;-0.40;99.90
44277;DHT22;29973;43.742;1.236;2023-12-07T05:21:08;-0.30;99.90
44277;DHT22;29973;43.742;1.236;2023-12-07T05:23:43;-0.30;99.90
44277;DHT22;29973;43.742;1.236;2023-12-07T05:26:19;-0.50;99.90
44277;DHT22;29973;43.742;1.236;2023-12-07T05:28:47;-0.50;99.90
44277;DHT22;29973;43.742;1.236;2023-12-07T05:31:23;-0.40;99.90
44277;DHT22;29973;43.742;1.236;2023-12-07T05:33:55;-0.30;99.90
44277;DHT22;29973;43.742;1.236;2023-12-07T05:36:45;-0.30;99.90
44277;DHT22;29973;43.742;1.236;2023-12-07T05:39:15;-0.30;99.90
44277;DHT22;29973;43.742;1.236;2023-12-07T05:41:44;-0.40;99.90
44277;DHT22;29973;43.742;1.236;2023-12-07T05:45:00;-0.40;99.90
44277;DHT22;29973;43.742;1.236;2023-12-07T05:47:29;-0.30;99.90
44277;DHT22;29973;43.742;1.236;2023-12-07T05:50:31;-0.20;99.90
44277;DHT22;29973;43.742;1.236;2023-12-07T05:53:24;-0.10;99.90
44277;DHT22;29973;43.742;1.236;2023-12-07T05:56:09;-0.10;99.90
44277;DHT22;29973;43.742;1.236;2023-12-07T05:59:06;-0.10;99.90
44277;DHT22;29973;43.742;1.236;2023-12-07T06:01:34;-0.10;99.90
44277;DHT22;29973;43.742;1.236;2023-12-07T06:04:26;-0.10;99.90
44277;DHT22;29973;43.742;1.236;2023-12-07T06:07:23;0.00;99.90
44277;DHT22;29973;43.742;1.236;2023-12-07T06:10:10;-0.20;99.90
44277;DHT22;29973;43.742;1.236;2023-12-07T06:12:45;-0.20;99.90
44277;DHT22;29973;43.742;1.236;2023-12-07T06:15:27;-0.30;99.90
44277;DHT22;29973;43.742;1.236;2023-12-07T06:18:06;-0.40;99.90
44277;DHT22;29973;43.742;1.236;2023-12-07T06:21:18;-0.40;99.90
44277;DHT22;29973;43.742;1.236;2023-12-07T06:23:49;-0.60;99.90
44277;DHT22;29973;43.742;1.236;2023-12-07T06:26:32;-0.70;99.90
44277;DHT22;29973;43.742;1.236;2023-12-07T06:29:00;-0.60;99.90
44277;DHT22;29973;43.742;1.236;2023-12-07T06:31:26;-0.70;99.90
44277;DHT22;29973;43.742;1.236;2023-12-07T06:33:53;-0.40;99.90
44277;DHT22;29973;43.742;1.236;2023-12-07T06:36:23;-0.50;99.90
44277;DHT22;29973;43.742;1.236;2023-12-07T06:39:15;-0.60;99.90
44277;DHT22;29973;43.742;1.236;2023-12-07T06:41:51;-0.60;99.90
44277;DHT22;29973;43.742;1.236;2023-12-07T06:44:29;-0.50;99.90
44277;DHT22;29973;43.742;1.236;2023-12-07T06:47:09;-0.50;99.90
44277;DHT22;29973;43.742;1.236;2023-12-07T06:49:49;-0.60;99.90
44277;DHT22;29973;43.742;1.236;2023-12-07T06:52:15;-0.50;99.90
44277;DHT22;29973;43.742;1.236;2023-12-07T06:54:45;-0.70;99.90
44277;DHT22;29973;43.742;1.236;2023-12-07T06:58:01;-0.60;99.90
44277;DHT22;29973;43.742;1.236;2023-12-07T07:00:34;-0.60;99.90
44277;DHT22;29973;43.742;1.236;2023-12-07T07:03:01;-0.60;99.90
44277;DHT22;29973;43.742;1.236;2023-12-07T07:05:28;-0.60;99.90
44277;DHT22;29973;43.742;1.236;2023-12-07T07:07:56;-0.70;99.90
44277;DHT22;29973;43.742;1.236;2023-12-07T07:10:24;-0.70;99.90
44277;DHT22;29973;43.742;1.236;2023-12-07T07:12:50;-0.60;99.90
44277;DHT22;29973;43.742;1.236;2023-12-07T07:15:16;-0.60;99.90
44277;DHT22;29973;43.742;1.236;2023-12-07T07:17:45;-0.60;99.90
44277;DHT22;29973;43.742;1.236;2023-12-07T07:20:11;-0.60;99.90
44277;DHT22;29973;43.742;1.236;2023-12-07T07:22:37;-0.50;99.90
44277;DHT22;29973;43.742;1.236;2023-12-07T07:25:03;-0.50;99.90
44277;DHT22;29973;43.742;1.236;2023-12-07T07:27:28;-0.50;99.90
44277;DHT22;29973;43.742;1.236;2023-12-07T07:29:54;-0.40;99.90
44277;DHT22;29973;43.742;1.236;2023-12-07T07:32:20;-0.40;99.90
44277;DHT22;29973;43.742;1.236;2023-12-07T07:34:45;-0.50;99.90
44277;DHT22;29973;43.742;1.236;2023-12-07T07:37:11;-0.50;99.90
44277;DHT22;29973;43.742;1.236;2023-12-07T07:39:37;-0.40;99.90
44277;DHT22;29973;43.742;1.236;2023-12-07T07:42:02;-0.30;99.90
44277;DHT22;29973;43.742;1.236;2023-12-07T07:44:28;-0.20;99.90
44277;DHT22;29973;43.742;1.236;2023-12-07T07:46:54;-0.20;99.90
44277;DHT22;29973;43.742;1.236;2023-12-07T07:49:19;-0.10;99.90
44277;DHT22;29973;43.742;1.236;2023-12-07T07:51:45;-0.10;99.90
44277;DHT22;29973;43.742;1.236;2023-12-07T07:54:10;-0.10;99.90
44277;DHT22;29973;43.742;1.236;2023-12-07T07:56:36;0.00;99.90
44277;DHT22;29973;43.742;1.236;2023-12-07T07:59:02;0.10;99.90
44277;DHT22;29973;43.742;1.236;2023-12-07T08:01:28;0.10;99.90
44277;DHT22;29973;43.742;1.236;2023-12-07T08:03:53;0.20;99.90
44277;DHT22;29973;43.742;1.236;2023-12-07T08:06:20;0.20;99.90
44277;DHT22;29973;43.742;1.236;2023-12-07T08:08:45;0.30;99.90
44277;DHT22;29973;43.742;1.236;2023-12-07T08:11:14;0.30;99.90
44277;DHT22;29973;43.742;1.236;2023-12-07T08:13:40;0.30;99.90
44277;DHT22;29973;43.742;1.236;2023-12-07T08:16:07;0.40;99.90
44277;DHT22;29973;43.742;1.236;2023-12-07T08:18:34;0.50;99.90
44277;DHT22;29973;43.742;1.236;2023-12-07T08:21:00;0.50;99.90
44277;DHT22;29973;43.742;1.236;2023-12-07T08:23:25;0.60;99.90
44277;DHT22;29973;43.742;1.236;2023-12-07T08:25:51;0.70;99.90
44277;DHT22;29973;43.742;1.236;2023-12-07T08:28:17;0.70;99.90
44277;DHT22;29973;43.742;1.236;2023-12-07T08:30:44;0.80;99.90
44277;DHT22;29973;43.742;1.236;2023-12-07T08:33:09;0.90;99.90
44277;DHT22;29973;43.742;1.236;2023-12-07T08:35:35;1.00;99.90
44277;DHT22;29973;43.742;1.236;2023-12-07T08:38:00;1.20;99.90
44277;DHT22;29973;43.742;1.236;2023-12-07T08:40:26;1.30;99.90
44277;DHT22;29973;43.742;1.236;2023-12-07T08:42:54;1.30;99.90
44277;DHT22;29973;43.742;1.236;2023-12-07T08:45:20;1.30;99.90
44277;DHT22;29973;43.742;1.236;2023-12-07T08:47:45;1.50;99.90
44277;DHT22;29973;43.742;1.236;2023-12-07T08:50:11;1.60;99.90
44277;DHT22;29973;43.742;1.236;2023-12-07T08:52:40;1.80;99.90
44277;DHT22;29973;43.742;1.236;2023-12-07T09:26:40;6.20;99.90
44277;DHT22;29973;43.742;1.236;2023-12-07T09:29:05;6.20;99.90
44277;DHT22;29973;43.742;1.236;2023-12-07T09:31:31;6.30;99.90
44277;DHT22;29973;43.742;1.236;2023-12-07T09:33:57;6.40;99.90
44277;DHT22;29973;43.742;1.236;2023-12-07T09:36:22;6.70;99.90
44277;DHT22;29973;43.742;1.236;2023-12-07T09:38:49;7.20;99.90
44277;DHT22;29973;43.742;1.236;2023-12-07T09:41:15;7.30;99.90
44277;DHT22;29973;43.742;1.236;2023-12-07T09:43:41;7.20;99.90
44277;DHT22;29973;43.742;1.236;2023-12-07T09:46:07;7.20;99.90
44277;DHT22;29973;43.742;1.236;2023-12-07T09:48:33;6.90;99.90
44277;DHT22;29973;43.742;1.236;2023-12-07T09:51:00;7.00;99.90
44277;DHT22;29973;43.742;1.236;2023-12-07T09:53:29;6.60;99.90
44277;DHT22;29973;43.742;1.236;2023-12-07T09:55:54;6.20;99.90
44277;DHT22;29973;43.742;1.236;2023-12-07T09:58:20;6.60;99.90
44277;DHT22;29973;43.742;1.236;2023-12-07T10:00:47;7.20;99.90
44277;DHT22;29973;43.742;1.236;2023-12-07T10:03:23;7.60;99.90
44277;DHT22;29973;43.742;1.236;2023-12-07T10:05:57;9.20;99.90
44277;DHT22;29973;43.742;1.236;2023-12-07T10:08:28;10.40;99.90
44277;DHT22;29973;43.742;1.236;2023-12-07T10:11:14;9.80;99.90
44277;DHT22;29973;43.742;1.236;2023-12-07T10:13:40;9.90;99.90
44277;DHT22;29973;43.742;1.236;2023-12-07T10:16:07;10.40;99.90
44277;DHT22;29973;43.742;1.236;2023-12-07T10:18:34;10.50;99.90
44277;DHT22;29973;43.742;1.236;2023-12-07T10:21:00;10.50;99.90
44277;DHT22;29973;43.742;1.236;2023-12-07T10:23:26;10.70;99.90
44277;DHT22;29973;43.742;1.236;2023-12-07T10:25:53;10.80;99.90
44277;DHT22;29973;43.742;1.236;2023-12-07T10:28:18;9.80;99.90
44277;DHT22;29973;43.742;1.236;2023-12-07T10:30:45;10.20;99.90
44277;DHT22;29973;43.742;1.236;2023-12-07T10:33:11;10.40;99.90
44277;DHT22;29973;43.742;1.236;2023-12-07T10:35:47;10.30;99.90
44277;DHT22;29973;43.742;1.236;2023-12-07T10:38:16;10.30;99.90
44277;DHT22;29973;43.742;1.236;2023-12-07T10:40:43;10.30;99.90
44277;DHT22;29973;43.742;1.236;2023-12-07T10:43:09;10.70;99.90
44277;DHT22;29973;43.742;1.236;2023-12-07T10:45:35;10.30;99.90
44277;DHT22;29973;43.742;1.236;2023-12-07T10:48:05;10.20;99.90
44277;DHT22;29973;43.742;1.236;2023-12-07T10:50:34;10.60;99.90
44277;DHT22;29973;43.742;1.236;2023-12-07T10:53:07;11.90;99.90
44277;DHT22;29973;43.742;1.236;2023-12-07T10:55:47;12.00;99.90
44277;DHT22;29973;43.742;1.236;2023-12-07T10:58:17;12.20;99.90
44277;DHT22;29973;43.742;1.236;2023-12-07T11:00:43;12.40;99.90
44277;DHT22;29973;43.742;1.236;2023-12-07T11:03:17;11.80;99.90
44277;DHT22;29973;43.742;1.236;2023-12-07T11:05:44;10.70;99.90
44277;DHT22;29973;43.742;1.236;2023-12-07T11:08:24;10.50;99.90
44277;DHT22;29973;43.742;1.236;2023-12-07T11:11:10;10.60;99.90
44277;DHT22;29973;43.742;1.236;2023-12-07T11:13:38;11.60;99.90
44277;DHT22;29973;43.742;1.236;2023-12-07T11:16:04;12.00;99.90
44277;DHT22;29973;43.742;1.236;2023-12-07T11:18:30;12.40;99.90
44277;DHT22;29973;43.742;1.236;2023-12-07T11:20:56;11.90;99.90
44277;DHT22;29973;43.742;1.236;2023-12-07T11:23:23;11.40;99.90
44277;DHT22;29973;43.742;1.236;2023-12-07T11:25:49;11.30;99.90
44277;DHT22;29973;43.742;1.236;2023-12-07T11:28:16;11.50;99.90
44277;DHT22;29973;43.742;1.236;2023-12-07T11:30:45;11.30;99.90
44277;DHT22;29973;43.742;1.236;2023-12-07T11:33:12;11.10;99.90
44277;DHT22;29973;43.742;1.236;2023-12-07T11:36:03;10.80;99.90
44277;DHT22;29973;43.742;1.236;2023-12-07T11:38:29;10.60;99.90
44277;DHT22;29973;43.742;1.236;2023-12-07T11:40:56;10.40;99.90
44277;DHT22;29973;43.742;1.236;2023-12-07T11:46:06;10.40;99.90
44277;DHT22;29973;43.742;1.236;2023-12-07T11:48:32;10.40;99.90
44277;DHT22;29973;43.742;1.236;2023-12-07T11:51:00;10.30;99.90
44277;DHT22;29973;43.742;1.236;2023-12-07T11:53:34;10.40;99.90
44277;DHT22;29973;43.742;1.236;2023-12-07T11:56:01;10.50;99.90
44277;DHT22;29973;43.742;1.236;2023-12-07T11:58:29;10.60;99.90
44277;DHT22;29973;43.742;1.236;2023-12-07T12:00:55;10.80;99.90
44277;DHT22;29973;43.742;1.236;2023-12-07T13:40:47;11.00;99.90
44277;DHT22;29973;43.742;1.236;2023-12-07T13:43:14;10.90;99.90
44277;DHT22;29973;43.742;1.236;2023-12-07T13:45:40;10.90;99.90
44277;DHT22;29973;43.742;1.236;2023-12-07T13:48:06;10.90;99.90
44277;DHT22;29973;43.742;1.236;2023-12-07T13:50:32;10.80;99.90
44277;DHT22;29973;43.742;1.236;2023-12-07T13:52:57;10.90;99.90
44277;DHT22;29973;43.742;1.236;2023-12-07T13:55:24;10.90;99.90
44277;DHT22;29973;43.742;1.236;2023-12-07T13:57:49;11.00;99.90
44277;DHT22;29973;43.742;1.236;2023-12-07T14:00:18;11.00;99.90
44277;DHT22;29973;43.742;1.236;2023-12-07T14:02:45;11.20;99.90
44277;DHT22;29973;43.742;1.236;2023-12-07T14:05:11;11.10;99.90
44277;DHT22;29973;43.742;1.236;2023-12-07T14:07:37;11.00;99.90
44277;DHT22;29973;43.742;1.236;2023-12-07T14:10:02;11.00;99.90
44277;DHT22;29973;43.742;1.236;2023-12-07T14:12:28;10.80;99.90
44277;DHT22;29973;43.742;1.236;2023-12-07T14:14:54;10.60;99.90
44277;DHT22;29973;43.742;1.236;2023-12-07T14:17:20;10.50;99.90
44277;DHT22;29973;43.742;1.236;2023-12-07T14:19:48;10.50;99.90
44277;DHT22;29973;43.742;1.236;2023-12-07T14:22:19;10.40;99.90
44277;DHT22;29973;43.742;1.236;2023-12-07T14:24:45;10.40;99.90
44277;DHT22;29973;43.742;1.236;2023-12-07T14:27:13;10.30;99.90
44277;DHT22;29973;43.742;1.236;2023-12-07T14:29:38;10.30;99.90
44277;DHT22;29973;43.742;1.236;2023-12-07T14:32:04;10.20;99.90
44277;DHT22;29973;43.742;1.236;2023-12-07T14:34:30;10.20;99.90
44277;DHT22;29973;43.742;1.236;2023-12-07T14:36:56;10.20;99.90
44277;DHT22;29973;43.742;1.236;2023-12-07T14:39:21;10.20;99.90
44277;DHT22;29973;43.742;1.236;2023-12-07T14:41:48;10.20;99.90
44277;DHT22;29973;43.742;1.236;2023-12-07T14:44:15;10.10;99.90
44277;DHT22;29973;43.742;1.236;2023-12-07T14:46:45;10.10;99.90
44277;DHT22;29973;43.742;1.236;2023-12-07T14:49:12;10.10;99.90
44277;DHT22;29973;43.742;1.236;2023-12-07T14:51:38;10.00;99.90
44277;DHT22;29973;43.742;1.236;2023-12-07T14:54:04;10.00;99.90
44277;DHT22;29973;43.742;1.236;2023-12-07T14:56:30;10.00;99.90
44277;DHT22;29973;43.742;1.236;2023-12-07T15:01:26;10.00;99.90
44277;DHT22;29973;43.742;1.236;2023-12-07T15:03:56;10.10;99.90
44277;DHT22;29973;43.742;1.236;2023-12-07T15:06:23;10.10;99.90
44277;DHT22;29973;43.742;1.236;2023-12-07T15:08:50;10.10;99.90
44277;DHT22;29973;43.742;1.236;2023-12-07T15:11:17;10.10;99.90
44277;DHT22;29973;43.742;1.236;2023-12-07T15:13:47;10.20;99.90
44277;DHT22;29973;43.742;1.236;2023-12-07T15:16:14;10.10;99.90
44277;DHT22;29973;43.742;1.236;2023-12-07T15:18:40;10.00;99.90
44277;DHT22;29973;43.742;1.236;2023-12-07T15:21:11;9.90;99.90
44277;DHT22;29973;43.742;1.236;2023-12-07T15:23:43;9.90;99.90
44277;DHT22;29973;43.742;1.236;2023-12-07T15:26:10;9.90;99.90
44277;DHT22;29973;43.742;1.236;2023-12-07T15:28:39;9.80;99.90
44277;DHT22;29973;43.742;1.236;2023-12-07T15:31:06;9.70;99.90
44277;DHT22;29973;43.742;1.236;2023-12-07T15:33:36;9.70;99.90
44277;DHT22;29973;43.742;1.236;2023-12-07T15:36:14;9.60;99.90
44277;DHT22;29973;43.742;1.236;2023-12-07T15:38:42;9.50;99.90
44277;DHT22;29973;43.742;1.236;2023-12-07T15:41:12;9.50;99.90
44277;DHT22;29973;43.742;1.236;2023-12-07T15:43:42;9.50;99.90
44277;DHT22;29973;43.742;1.236;2023-12-07T15:46:12;9.40;99.90
44277;DHT22;29973;43.742;1.236;2023-12-07T15:48:38;9.40;99.90
44277;DHT22;29973;43.742;1.236;2023-12-07T15:51:07;9.30;99.90
44277;DHT22;29973;43.742;1.236;2023-12-07T15:53:35;9.30;99.90
44277;DHT22;29973;43.742;1.236;2023-12-07T15:56:01;9.30;99.90
44277;DHT22;29973;43.742;1.236;2023-12-07T15:58:27;9.20;99.90
44277;DHT22;29973;43.742;1.236;2023-12-07T16:00:57;9.20;99.90
44277;DHT22;29973;43.742;1.236;2023-12-07T16:03:23;9.10;99.90
44277;DHT22;29973;43.742;1.236;2023-12-07T16:05:52;9.00;99.90
44277;DHT22;29973;43.742;1.236;2023-12-07T16:08:20;9.00;99.90
44277;DHT22;29973;43.742;1.236;2023-12-07T16:10:48;9.00;99.90
44277;DHT22;29973;43.742;1.236;2023-12-07T16:13:16;8.90;99.90
44277;DHT22;29973;43.742;1.236;2023-12-07T16:15:44;8.80;99.90
44277;DHT22;29973;43.742;1.236;2023-12-07T16:18:09;8.80;99.90
44277;DHT22;29973;43.742;1.236;2023-12-07T16:20:36;8.80;99.90
44277;DHT22;29973;43.742;1.236;2023-12-07T16:23:12;8.80;99.90
44277;DHT22;29973;43.742;1.236;2023-12-07T16:25:43;8.80;99.90
44277;DHT22;29973;43.742;1.236;2023-12-07T16:28:09;8.70;99.90
44277;DHT22;29973;43.742;1.236;2023-12-07T16:30:36;8.70;99.90
44277;DHT22;29973;43.742;1.236;2023-12-07T16:33:04;8.70;99.90
44277;DHT22;29973;43.742;1.236;2023-12-07T16:35:41;8.70;99.90
44277;DHT22;29973;43.742;1.236;2023-12-07T16:38:10;8.70;99.90
44277;DHT22;29973;43.742;1.236;2023-12-07T16:40:39;8.70;99.90
44277;DHT22;29973;43.742;1.236;2023-12-07T16:43:06;8.70;99.90
44277;DHT22;29973;43.742;1.236;2023-12-07T16:45:39;8.70;99.90
44277;DHT22;29973;43.742;1.236;2023-12-07T16:48:06;8.70;99.90
44277;DHT22;29973;43.742;1.236;2023-12-07T16:50:32;8.70;99.90
44277;DHT22;29973;43.742;1.236;2023-12-07T16:53:00;8.70;99.90
44277;DHT22;29973;43.742;1.236;2023-12-07T16:55:27;8.60;99.90
44277;DHT22;29973;43.742;1.236;2023-12-07T16:57:53;8.70;99.90
44277;DHT22;29973;43.742;1.236;2023-12-07T17:00:25;8.70;99.90
44277;DHT22;29973;43.742;1.236;2023-12-07T17:02:53;8.70;99.90
44277;DHT22;29973;43.742;1.236;2023-12-07T17:05:21;8.60;99.90
44277;DHT22;29973;43.742;1.236;2023-12-07T17:07:49;8.60;99.90
44277;DHT22;29973;43.742;1.236;2023-12-07T17:10:16;8.50;99.90
44277;DHT22;29973;43.742;1.236;2023-12-07T17:12:42;8.50;99.90
44277;DHT22;29973;43.742;1.236;2023-12-07T17:15:10;8.50;99.90
44277;DHT22;29973;43.742;1.236;2023-12-07T17:17:40;8.40;99.90
44277;DHT22;29973;43.742;1.236;2023-12-07T17:20:08;8.50;99.90
44277;DHT22;29973;43.742;1.236;2023-12-07T17:22:36;8.40;99.90
44277;DHT22;29973;43.742;1.236;2023-12-07T17:25:06;8.40;99.90
44277;DHT22;29973;43.742;1.236;2023-12-07T17:27:33;8.40;99.90
44277;DHT22;29973;43.742;1.236;2023-12-07T17:30:00;8.40;99.90
44277;DHT22;29973;43.742;1.236;2023-12-07T17:32:26;8.40;99.90
44277;DHT22;29973;43.742;1.236;2023-12-07T17:34:54;8.40;99.90
44277;DHT22;29973;43.742;1.236;2023-12-07T17:37:19;8.30;99.90
44277;DHT22;29973;43.742;1.236;2023-12-07T17:39:46;8.20;99.90
44277;DHT22;29973;43.742;1.236;2023-12-07T17:42:12;8.20;99.90
44277;DHT22;29973;43.742;1.236;2023-12-07T17:44:37;8.30;99.90
44277;DHT22;29973;43.742;1.236;2023-12-07T17:47:04;8.20;99.90
44277;DHT22;29973;43.742;1.236;2023-12-07T17:49:30;8.20;99.90
44277;DHT22;29973;43.742;1.236;2023-12-07T17:51:57;8.30;99.90
44277;DHT22;29973;43.742;1.236;2023-12-07T17:54:23;8.20;99.90
44277;DHT22;29973;43.742;1.236;2023-12-07T17:56:50;8.20;99.90
44277;DHT22;29973;43.742;1.236;2023-12-07T17:59:17;8.20;99.90
44277;DHT22;29973;43.742;1.236;2023-12-07T18:01:43;8.30;99.90
44277;DHT22;29973;43.742;1.236;2023-12-07T18:04:09;8.30;99.90
44277;DHT22;29973;43.742;1.236;2023-12-07T18:06:35;8.20;99.90
44277;DHT22;29973;43.742;1.236;2023-12-07T18:09:01;8.30;99.90
44277;DHT22;29973;43.742;1.236;2023-12-07T18:11:27;8.30;99.90
44277;DHT22;29973;43.742;1.236;2023-12-07T18:13:53;8.30;99.90
44277;DHT22;29973;43.742;1.236;2023-12-07T18:16:20;8.20;99.90
44277;DHT22;29973;43.742;1.236;2023-12-07T18:18:47;8.10;99.90
44277;DHT22;29973;43.742;1.236;2023-12-07T18:21:13;8.00;99.90
44277;DHT22;29973;43.742;1.236;2023-12-07T18:23:38;7.90;99.90
44277;DHT22;29973;43.742;1.236;2023-12-07T18:26:09;7.90;99.90
44277;DHT22;29973;43.742;1.236;2023-12-07T18:28:36;7.90;99.90
44277;DHT22;29973;43.742;1.236;2023-12-07T18:31:02;7.90;99.90
44277;DHT22;29973;43.742;1.236;2023-12-07T18:33:28;7.90;99.90